sensor_id;sensor_type;location;lat;lon;timestamp;P1;durP1;ratioP1;P2;durP2;ratioP2
5559;SDS011;2803;47.916;8.074;2023-11-21T00:01:02;1.40;;;0.70;;
5559;SDS011;2803;47.916;8.074;2023-11-21T00:03:30;2.40;;;0.87;;
5559;SDS011;2803;47.916;8.074;2023-11-21T00:05:57;2.70;;;0.80;;
5559;SDS011;2803;47.916;8.074;2023-11-21T00:08:23;6.63;;;1.13;;
5559;SDS011;2803;47.916;8.074;2023-11-21T00:10:50;1.93;;;0.70;;
5559;SDS011;2803;47.916;8.074;2023-11-21T00:13:17;1.57;;;0.93;;
5559;SDS011;2803;47.916;8.074;2023-11-21T00:15:43;2.00;;;0.60;;
5559;SDS011;2803;47.916;8.074;2023-11-21T00:18:10;4.03;;;0.70;;
5559;SDS011;2803;47.916;8.074;2023-11-21T00:20:38;3.63;;;0.70;;
5559;SDS011;2803;47.916;8.074;2023-11-21T00:23:04;2.63;;;0.87;;
5559;SDS011;2803;47.916;8.074;2023-11-21T00:25:31;3.37;;;0.60;;
5559;SDS011;2803;47.916;8.074;2023-11-21T00:27:58;1.10;;;0.63;;
5559;SDS011;2803;47.916;8.074;2023-11-21T00:30:26;1.67;;;0.70;;
5559;SDS011;2803;47.916;8.074;2023-11-21T00:32:53;1.87;;;0.60;;
5559;SDS011;2803;47.916;8.074;2023-11-21T00:35:20;5.73;;;0.80;;
5559;SDS011;2803;47.916;8.074;2023-11-21T00:37:48;0.80;;;0.50;;
5559;SDS011;2803;47.916;8.074;2023-11-21T00:40:15;2.10;;;0.63;;
5559;SDS011;2803;47.916;8.074;2023-11-21T00:42:44;1.43;;;0.50;;
5559;SDS011;2803;47.916;8.074;2023-11-21T00:45:11;1.63;;;0.60;;
5559;SDS011;2803;47.916;8.074;2023-11-21T00:47:38;1.77;;;0.60;;
5559;SDS011;2803;47.916;8.074;2023-11-21T00:50:05;2.53;;;0.67;;
5559;SDS011;2803;47.916;8.074;2023-11-21T00:52:32;1.00;;;0.53;;
5559;SDS011;2803;47.916;8.074;2023-11-21T00:55:00;7.20;;;0.60;;
5559;SDS011;2803;47.916;8.074;2023-11-21T00:57:28;2.00;;;0.60;;
5559;SDS011;2803;47.916;8.074;2023-11-21T00:59:54;1.00;;;0.50;;
5559;SDS011;2803;47.916;8.074;2023-11-21T01:02:21;4.40;;;0.80;;
5559;SDS011;2803;47.916;8.074;2023-11-21T01:04:47;5.30;;;0.70;;
5559;SDS011;2803;47.916;8.074;2023-11-21T01:07:14;12.73;;;0.70;;
5559;SDS011;2803;47.916;8.074;2023-11-21T01:09:41;0.80;;;0.47;;
5559;SDS011;2803;47.916;8.074;2023-11-21T01:12:10;1.00;;;0.60;;
5559;SDS011;2803;47.916;8.074;2023-11-21T01:14:37;0.90;;;0.50;;
5559;SDS011;2803;47.916;8.074;2023-11-21T01:17:04;1.13;;;0.60;;
5559;SDS011;2803;47.916;8.074;2023-11-21T01:19:31;1.50;;;0.43;;
5559;SDS011;2803;47.916;8.074;2023-11-21T01:21:57;0.80;;;0.50;;
5559;SDS011;2803;47.916;8.074;2023-11-21T01:24:24;1.63;;;0.60;;
5559;SDS011;2803;47.916;8.074;2023-11-21T01:26:50;1.93;;;0.43;;
5559;SDS011;2803;47.916;8.074;2023-11-21T01:29:18;1.13;;;0.40;;
5559;SDS011;2803;47.916;8.074;2023-11-21T01:31:45;0.90;;;0.50;;
5559;SDS011;2803;47.916;8.074;2023-11-21T01:34:12;1.00;;;0.53;;
5559;SDS011;2803;47.916;8.074;2023-11-21T01:36:39;3.27;;;0.73;;
5559;SDS011;2803;47.916;8.074;2023-11-21T01:39:05;0.80;;;0.40;;
5559;SDS011;2803;47.916;8.074;2023-11-21T01:41:33;1.00;;;0.50;;
5559;SDS011;2803;47.916;8.074;2023-11-21T01:44:01;0.80;;;0.50;;
5559;SDS011;2803;47.916;8.074;2023-11-21T01:46:29;2.30;;;0.50;;
5559;SDS011;2803;47.916;8.074;2023-11-21T01:48:55;0.80;;;0.40;;
5559;SDS011;2803;47.916;8.074;2023-11-21T01:51:22;2.70;;;0.50;;
5559;SDS011;2803;47.916;8.074;2023-11-21T01:53:49;0.80;;;0.47;;
5559;SDS011;2803;47.916;8.074;2023-11-21T01:56:16;0.90;;;0.50;;
5559;SDS011;2803;47.916;8.074;2023-11-21T01:58:43;1.57;;;0.60;;
5559;SDS011;2803;47.916;8.074;2023-11-21T02:01:11;1.00;;;0.40;;
5559;SDS011;2803;47.916;8.074;2023-11-21T02:03:40;0.70;;;0.40;;
5559;SDS011;2803;47.916;8.074;2023-11-21T02:06:07;0.90;;;0.50;;
5559;SDS011;2803;47.916;8.074;2023-11-21T02:08:34;2.17;;;0.40;;
5559;SDS011;2803;47.916;8.074;2023-11-21T02:11:02;0.80;;;0.40;;
5559;SDS011;2803;47.916;8.074;2023-11-21T02:13:29;2.50;;;0.50;;
5559;SDS011;2803;47.916;8.074;2023-11-21T02:15:56;0.80;;;0.40;;
5559;SDS011;2803;47.916;8.074;2023-11-21T02:18:23;1.67;;;0.60;;
5559;SDS011;2803;47.916;8.074;2023-11-21T02:20:51;0.80;;;0.50;;
5559;SDS011;2803;47.916;8.074;2023-11-21T02:23:19;0.90;;;0.50;;
5559;SDS011;2803;47.916;8.074;2023-11-21T02:25:46;2.73;;;0.40;;
5559;SDS011;2803;47.916;8.074;2023-11-21T02:28:13;0.97;;;0.40;;
5559;SDS011;2803;47.916;8.074;2023-11-21T02:30:50;3.30;;;0.77;;
5559;SDS011;2803;47.916;8.074;2023-11-21T02:33:20;1.80;;;0.80;;
5559;SDS011;2803;47.916;8.074;2023-11-21T02:35:47;1.67;;;0.60;;
5559;SDS011;2803;47.916;8.074;2023-11-21T02:38:14;0.90;;;0.50;;
5559;SDS011;2803;47.916;8.074;2023-11-21T02:40:42;4.77;;;0.57;;
5559;SDS011;2803;47.916;8.074;2023-11-21T02:43:08;0.80;;;0.50;;
5559;SDS011;2803;47.916;8.074;2023-11-21T02:45:35;0.80;;;0.40;;
5559;SDS011;2803;47.916;8.074;2023-11-21T02:48:02;2.70;;;0.50;;
5559;SDS011;2803;47.916;8.074;2023-11-21T02:50:29;2.73;;;0.53;;
5559;SDS011;2803;47.916;8.074;2023-11-21T02:52:56;1.57;;;0.50;;
5559;SDS011;2803;47.916;8.074;2023-11-21T02:55:25;1.60;;;0.50;;
5559;SDS011;2803;47.916;8.074;2023-11-21T02:57:53;3.23;;;0.80;;
5559;SDS011;2803;47.916;8.074;2023-11-21T03:00:21;0.80;;;0.50;;
5559;SDS011;2803;47.916;8.074;2023-11-21T03:02:49;0.80;;;0.50;;
5559;SDS011;2803;47.916;8.074;2023-11-21T03:05:16;4.20;;;0.60;;
5559;SDS011;2803;47.916;8.074;2023-11-21T03:07:42;1.00;;;0.60;;
5559;SDS011;2803;47.916;8.074;2023-11-21T03:10:10;1.57;;;0.90;;
5559;SDS011;2803;47.916;8.074;2023-11-21T03:12:37;1.57;;;0.60;;
5559;SDS011;2803;47.916;8.074;2023-11-21T03:15:05;1.10;;;0.70;;
5559;SDS011;2803;47.916;8.074;2023-11-21T03:17:32;2.50;;;0.70;;
5559;SDS011;2803;47.916;8.074;2023-11-21T03:19:59;0.90;;;0.50;;
5559;SDS011;2803;47.916;8.074;2023-11-21T03:22:26;0.80;;;0.50;;
5559;SDS011;2803;47.916;8.074;2023-11-21T03:24:53;1.47;;;0.60;;
5559;SDS011;2803;47.916;8.074;2023-11-21T03:27:19;3.13;;;0.60;;
5559;SDS011;2803;47.916;8.074;2023-11-21T03:29:46;0.87;;;0.63;;
5559;SDS011;2803;47.916;8.074;2023-11-21T03:32:16;1.20;;;0.60;;
5559;SDS011;2803;47.916;8.074;2023-11-21T03:34:52;1.80;;;0.57;;
5559;SDS011;2803;47.916;8.074;2023-11-21T03:37:21;0.80;;;0.50;;
5559;SDS011;2803;47.916;8.074;2023-11-21T03:39:48;5.23;;;0.70;;
5559;SDS011;2803;47.916;8.074;2023-11-21T03:42:14;0.90;;;0.50;;
5559;SDS011;2803;47.916;8.074;2023-11-21T03:44:41;0.80;;;0.50;;
5559;SDS011;2803;47.916;8.074;2023-11-21T03:47:07;2.40;;;0.63;;
5559;SDS011;2803;47.916;8.074;2023-11-21T03:49:35;5.67;;;0.80;;
5559;SDS011;2803;47.916;8.074;2023-11-21T03:52:02;1.00;;;0.50;;
5559;SDS011;2803;47.916;8.074;2023-11-21T03:54:29;1.73;;;0.50;;
5559;SDS011;2803;47.916;8.074;2023-11-21T03:56:55;2.03;;;0.60;;
5559;SDS011;2803;47.916;8.074;2023-11-21T03:59:22;2.40;;;0.70;;
5559;SDS011;2803;47.916;8.074;2023-11-21T04:01:49;4.10;;;0.60;;
5559;SDS011;2803;47.916;8.074;2023-11-21T04:04:16;3.13;;;0.70;;
5559;SDS011;2803;47.916;8.074;2023-11-21T04:06:43;1.23;;;0.50;;
5559;SDS011;2803;47.916;8.074;2023-11-21T04:09:10;0.90;;;0.60;;
5559;SDS011;2803;47.916;8.074;2023-11-21T04:11:37;1.63;;;0.73;;
5559;SDS011;2803;47.916;8.074;2023-11-21T04:14:04;1.67;;;0.60;;
5559;SDS011;2803;47.916;8.074;2023-11-21T04:16:30;1.10;;;0.60;;
5559;SDS011;2803;47.916;8.074;2023-11-21T04:18:58;3.63;;;0.60;;
5559;SDS011;2803;47.916;8.074;2023-11-21T04:21:25;1.70;;;0.60;;
5559;SDS011;2803;47.916;8.074;2023-11-21T04:23:53;0.90;;;0.57;;
5559;SDS011;2803;47.916;8.074;2023-11-21T04:26:20;2.40;;;0.63;;
5559;SDS011;2803;47.916;8.074;2023-11-21T04:28:46;4.27;;;0.80;;
5559;SDS011;2803;47.916;8.074;2023-11-21T04:31:13;1.43;;;0.57;;
5559;SDS011;2803;47.916;8.074;2023-11-21T04:33:39;1.47;;;0.80;;
5559;SDS011;2803;47.916;8.074;2023-11-21T04:36:06;0.90;;;0.50;;
5559;SDS011;2803;47.916;8.074;2023-11-21T04:38:33;1.97;;;0.70;;
5559;SDS011;2803;47.916;8.074;2023-11-21T04:41:01;2.80;;;0.60;;
5559;SDS011;2803;47.916;8.074;2023-11-21T04:43:28;0.90;;;0.60;;
5559;SDS011;2803;47.916;8.074;2023-11-21T04:45:55;2.17;;;1.00;;
5559;SDS011;2803;47.916;8.074;2023-11-21T04:48:21;1.20;;;0.90;;
5559;SDS011;2803;47.916;8.074;2023-11-21T04:50:48;2.40;;;0.83;;
5559;SDS011;2803;47.916;8.074;2023-11-21T04:53:15;4.50;;;1.00;;
5559;SDS011;2803;47.916;8.074;2023-11-21T04:55:42;2.13;;;0.80;;
5559;SDS011;2803;47.916;8.074;2023-11-21T04:58:10;2.50;;;1.00;;
5559;SDS011;2803;47.916;8.074;2023-11-21T05:00:37;2.63;;;0.60;;
5559;SDS011;2803;47.916;8.074;2023-11-21T05:03:04;1.00;;;0.77;;
5559;SDS011;2803;47.916;8.074;2023-11-21T05:05:32;2.70;;;0.80;;
5559;SDS011;2803;47.916;8.074;2023-11-21T05:07:58;1.10;;;0.80;;
5559;SDS011;2803;47.916;8.074;2023-11-21T05:10:26;1.10;;;0.90;;
5559;SDS011;2803;47.916;8.074;2023-11-21T05:12:52;3.17;;;1.10;;
5559;SDS011;2803;47.916;8.074;2023-11-21T05:15:20;2.97;;;1.53;;
5559;SDS011;2803;47.916;8.074;2023-11-21T05:17:48;2.40;;;1.47;;
5559;SDS011;2803;47.916;8.074;2023-11-21T05:20:17;8.30;;;1.57;;
5559;SDS011;2803;47.916;8.074;2023-11-21T05:22:46;2.40;;;1.53;;
5559;SDS011;2803;47.916;8.074;2023-11-21T05:25:13;2.03;;;1.50;;
5559;SDS011;2803;47.916;8.074;2023-11-21T05:27:40;3.40;;;1.90;;
5559;SDS011;2803;47.916;8.074;2023-11-21T05:30:07;3.67;;;1.67;;
5559;SDS011;2803;47.916;8.074;2023-11-21T05:32:38;3.63;;;1.80;;
5559;SDS011;2803;47.916;8.074;2023-11-21T05:35:04;3.30;;;1.17;;
5559;SDS011;2803;47.916;8.074;2023-11-21T05:37:34;1.60;;;1.40;;
5559;SDS011;2803;47.916;8.074;2023-11-21T05:40:03;2.80;;;1.47;;
5559;SDS011;2803;47.916;8.074;2023-11-21T05:42:31;1.63;;;1.27;;
5559;SDS011;2803;47.916;8.074;2023-11-21T05:44:57;3.93;;;1.47;;
5559;SDS011;2803;47.916;8.074;2023-11-21T05:47:34;1.50;;;1.40;;
5559;SDS011;2803;47.916;8.074;2023-11-21T05:50:03;1.43;;;1.10;;
5559;SDS011;2803;47.916;8.074;2023-11-21T05:52:31;2.40;;;1.33;;
5559;SDS011;2803;47.916;8.074;2023-11-21T05:54:58;1.60;;;1.20;;
5559;SDS011;2803;47.916;8.074;2023-11-21T05:57:25;1.50;;;1.10;;
5559;SDS011;2803;47.916;8.074;2023-11-21T05:59:51;1.93;;;0.97;;
5559;SDS011;2803;47.916;8.074;2023-11-21T06:02:18;1.87;;;1.13;;
5559;SDS011;2803;47.916;8.074;2023-11-21T06:04:44;2.07;;;1.33;;
5559;SDS011;2803;47.916;8.074;2023-11-21T06:07:13;4.90;;;1.73;;
5559;SDS011;2803;47.916;8.074;2023-11-21T06:09:39;3.90;;;1.47;;
5559;SDS011;2803;47.916;8.074;2023-11-21T06:12:06;1.80;;;1.20;;
5559;SDS011;2803;47.916;8.074;2023-11-21T06:14:33;2.40;;;1.27;;
5559;SDS011;2803;47.916;8.074;2023-11-21T06:17:00;1.90;;;1.00;;
5559;SDS011;2803;47.916;8.074;2023-11-21T06:19:27;4.10;;;1.40;;
5559;SDS011;2803;47.916;8.074;2023-11-21T06:21:53;2.30;;;1.40;;
5559;SDS011;2803;47.916;8.074;2023-11-21T06:24:21;1.57;;;0.80;;
5559;SDS011;2803;47.916;8.074;2023-11-21T06:26:48;2.33;;;0.70;;
5559;SDS011;2803;47.916;8.074;2023-11-21T06:29:14;1.13;;;0.67;;
5559;SDS011;2803;47.916;8.074;2023-11-21T06:31:41;3.33;;;0.80;;
5559;SDS011;2803;47.916;8.074;2023-11-21T06:34:08;1.50;;;0.50;;
5559;SDS011;2803;47.916;8.074;2023-11-21T06:36:35;4.13;;;0.90;;
5559;SDS011;2803;47.916;8.074;2023-11-21T06:39:02;2.70;;;1.10;;
5559;SDS011;2803;47.916;8.074;2023-11-21T06:41:33;2.33;;;1.27;;
5559;SDS011;2803;47.916;8.074;2023-11-21T06:43:59;1.33;;;1.10;;
5559;SDS011;2803;47.916;8.074;2023-11-21T06:46:26;2.23;;;1.20;;
5559;SDS011;2803;47.916;8.074;2023-11-21T06:48:53;2.60;;;0.90;;
5559;SDS011;2803;47.916;8.074;2023-11-21T06:51:19;3.40;;;1.40;;
5559;SDS011;2803;47.916;8.074;2023-11-21T06:53:46;2.23;;;1.20;;
5559;SDS011;2803;47.916;8.074;2023-11-21T06:56:16;1.40;;;0.97;;
5559;SDS011;2803;47.916;8.074;2023-11-21T06:58:44;2.00;;;1.10;;
5559;SDS011;2803;47.916;8.074;2023-11-21T07:01:11;2.70;;;0.90;;
5559;SDS011;2803;47.916;8.074;2023-11-21T07:03:38;3.57;;;1.20;;
5559;SDS011;2803;47.916;8.074;2023-11-21T07:06:06;1.20;;;0.90;;
5559;SDS011;2803;47.916;8.074;2023-11-21T07:08:33;6.53;;;1.00;;
5559;SDS011;2803;47.916;8.074;2023-11-21T07:10:59;1.40;;;1.00;;
5559;SDS011;2803;47.916;8.074;2023-11-21T07:13:27;1.60;;;1.40;;
5559;SDS011;2803;47.916;8.074;2023-11-21T07:15:55;1.40;;;1.10;;
5559;SDS011;2803;47.916;8.074;2023-11-21T07:18:22;10.17;;;1.40;;
5559;SDS011;2803;47.916;8.074;2023-11-21T07:20:49;1.97;;;1.47;;
5559;SDS011;2803;47.916;8.074;2023-11-21T07:23:16;5.17;;;1.20;;
5559;SDS011;2803;47.916;8.074;2023-11-21T07:25:43;1.53;;;1.30;;
5559;SDS011;2803;47.916;8.074;2023-11-21T07:28:10;2.83;;;1.63;;
5559;SDS011;2803;47.916;8.074;2023-11-21T07:30:36;1.47;;;1.27;;
5559;SDS011;2803;47.916;8.074;2023-11-21T07:33:05;4.33;;;1.60;;
5559;SDS011;2803;47.916;8.074;2023-11-21T07:35:32;2.57;;;1.63;;
5559;SDS011;2803;47.916;8.074;2023-11-21T07:37:59;2.10;;;1.30;;
5559;SDS011;2803;47.916;8.074;2023-11-21T07:40:25;3.00;;;1.40;;
5559;SDS011;2803;47.916;8.074;2023-11-21T07:42:52;2.17;;;1.70;;
5559;SDS011;2803;47.916;8.074;2023-11-21T07:45:22;2.70;;;1.57;;
5559;SDS011;2803;47.916;8.074;2023-11-21T07:47:49;3.80;;;1.80;;
5559;SDS011;2803;47.916;8.074;2023-11-21T07:50:17;1.73;;;1.20;;
5559;SDS011;2803;47.916;8.074;2023-11-21T07:52:43;4.70;;;1.60;;
5559;SDS011;2803;47.916;8.074;2023-11-21T07:55:10;2.80;;;1.30;;
5559;SDS011;2803;47.916;8.074;2023-11-21T07:57:37;3.53;;;1.27;;
5559;SDS011;2803;47.916;8.074;2023-11-21T08:00:04;2.90;;;1.50;;
5559;SDS011;2803;47.916;8.074;2023-11-21T08:02:34;3.30;;;1.57;;
5559;SDS011;2803;47.916;8.074;2023-11-21T08:05:00;1.87;;;1.17;;
5559;SDS011;2803;47.916;8.074;2023-11-21T08:07:28;4.00;;;1.27;;
5559;SDS011;2803;47.916;8.074;2023-11-21T08:09:56;3.30;;;1.37;;
5559;SDS011;2803;47.916;8.074;2023-11-21T08:12:23;4.00;;;1.30;;
5559;SDS011;2803;47.916;8.074;2023-11-21T08:14:52;3.57;;;1.30;;
5559;SDS011;2803;47.916;8.074;2023-11-21T08:17:19;3.40;;;1.30;;
5559;SDS011;2803;47.916;8.074;2023-11-21T08:19:46;4.83;;;1.00;;
5559;SDS011;2803;47.916;8.074;2023-11-21T08:22:14;1.40;;;1.00;;
5559;SDS011;2803;47.916;8.074;2023-11-21T08:24:42;2.93;;;1.00;;
5559;SDS011;2803;47.916;8.074;2023-11-21T08:27:09;2.37;;;1.10;;
5559;SDS011;2803;47.916;8.074;2023-11-21T08:29:36;3.33;;;1.00;;
5559;SDS011;2803;47.916;8.074;2023-11-21T08:32:03;7.47;;;2.83;;
5559;SDS011;2803;47.916;8.074;2023-11-21T08:34:30;4.47;;;1.00;;
5559;SDS011;2803;47.916;8.074;2023-11-21T08:36:57;3.10;;;1.10;;
5559;SDS011;2803;47.916;8.074;2023-11-21T08:39:23;1.37;;;0.80;;
5559;SDS011;2803;47.916;8.074;2023-11-21T08:41:53;7.80;;;1.10;;
5559;SDS011;2803;47.916;8.074;2023-11-21T08:44:19;8.03;;;1.17;;
5559;SDS011;2803;47.916;8.074;2023-11-21T08:46:46;2.03;;;1.00;;
5559;SDS011;2803;47.916;8.074;2023-11-21T08:49:13;1.50;;;1.07;;
5559;SDS011;2803;47.916;8.074;2023-11-21T08:51:40;1.50;;;1.00;;
5559;SDS011;2803;47.916;8.074;2023-11-21T08:54:07;6.20;;;1.20;;
5559;SDS011;2803;47.916;8.074;2023-11-21T08:56:33;1.93;;;1.33;;
5559;SDS011;2803;47.916;8.074;2023-11-21T08:59:01;1.90;;;1.20;;
5559;SDS011;2803;47.916;8.074;2023-11-21T09:01:28;2.03;;;1.30;;
5559;SDS011;2803;47.916;8.074;2023-11-21T09:03:56;1.90;;;1.37;;
5559;SDS011;2803;47.916;8.074;2023-11-21T09:06:23;2.40;;;1.53;;
5559;SDS011;2803;47.916;8.074;2023-11-21T09:08:50;3.50;;;1.57;;
5559;SDS011;2803;47.916;8.074;2023-11-21T09:11:17;3.10;;;1.40;;
5559;SDS011;2803;47.916;8.074;2023-11-21T09:13:43;1.67;;;1.20;;
5559;SDS011;2803;47.916;8.074;2023-11-21T09:16:13;3.00;;;1.20;;
5559;SDS011;2803;47.916;8.074;2023-11-21T09:18:40;1.30;;;1.17;;
5559;SDS011;2803;47.916;8.074;2023-11-21T09:21:07;1.63;;;0.97;;
5559;SDS011;2803;47.916;8.074;2023-11-21T09:23:34;1.13;;;1.03;;
5559;SDS011;2803;47.916;8.074;2023-11-21T09:26:00;1.33;;;1.20;;
5559;SDS011;2803;47.916;8.074;2023-11-21T09:28:27;1.43;;;1.20;;
5559;SDS011;2803;47.916;8.074;2023-11-21T09:30:54;1.87;;;1.40;;
5559;SDS011;2803;47.916;8.074;2023-11-21T09:33:22;1.87;;;1.40;;
5559;SDS011;2803;47.916;8.074;2023-11-21T09:35:50;2.90;;;1.60;;
5559;SDS011;2803;47.916;8.074;2023-11-21T09:38:17;2.13;;;1.57;;
5559;SDS011;2803;47.916;8.074;2023-11-21T09:40:44;1.50;;;1.40;;
5559;SDS011;2803;47.916;8.074;2023-11-21T09:43:13;1.70;;;1.30;;
5559;SDS011;2803;47.916;8.074;2023-11-21T09:45:44;2.60;;;1.43;;
5559;SDS011;2803;47.916;8.074;2023-11-21T09:48:12;1.73;;;1.00;;
5559;SDS011;2803;47.916;8.074;2023-11-21T09:50:40;2.00;;;1.20;;
5559;SDS011;2803;47.916;8.074;2023-11-21T09:53:11;9.60;;;1.20;;
5559;SDS011;2803;47.916;8.074;2023-11-21T09:55:43;2.03;;;1.00;;
5559;SDS011;2803;47.916;8.074;2023-11-21T09:58:11;2.20;;;1.33;;
5559;SDS011;2803;47.916;8.074;2023-11-21T10:00:39;1.10;;;0.97;;
5559;SDS011;2803;47.916;8.074;2023-11-21T10:03:07;1.20;;;1.10;;
5559;SDS011;2803;47.916;8.074;2023-11-21T10:05:34;3.90;;;1.20;;
5559;SDS011;2803;47.916;8.074;2023-11-21T10:08:03;4.23;;;1.20;;
5559;SDS011;2803;47.916;8.074;2023-11-21T10:10:33;1.77;;;0.83;;
5559;SDS011;2803;47.916;8.074;2023-11-21T10:13:02;2.13;;;1.00;;
5559;SDS011;2803;47.916;8.074;2023-11-21T10:15:31;1.27;;;1.00;;
5559;SDS011;2803;47.916;8.074;2023-11-21T10:18:01;1.30;;;0.80;;
5559;SDS011;2803;47.916;8.074;2023-11-21T10:20:29;1.07;;;0.97;;
5559;SDS011;2803;47.916;8.074;2023-11-21T10:22:58;1.03;;;0.93;;
5559;SDS011;2803;47.916;8.074;2023-11-21T10:25:28;3.30;;;1.10;;
5559;SDS011;2803;47.916;8.074;2023-11-21T10:27:56;1.87;;;1.30;;
5559;SDS011;2803;47.916;8.074;2023-11-21T10:30:27;1.53;;;1.00;;
5559;SDS011;2803;47.916;8.074;2023-11-21T10:32:58;1.60;;;1.00;;
5559;SDS011;2803;47.916;8.074;2023-11-21T10:35:26;3.30;;;1.10;;
5559;SDS011;2803;47.916;8.074;2023-11-21T10:38:05;1.40;;;1.10;;
5559;SDS011;2803;47.916;8.074;2023-11-21T10:40:36;1.30;;;1.10;;
5559;SDS011;2803;47.916;8.074;2023-11-21T10:43:05;2.20;;;1.30;;
5559;SDS011;2803;47.916;8.074;2023-11-21T10:45:33;3.03;;;1.27;;
5559;SDS011;2803;47.916;8.074;2023-11-21T10:48:04;2.23;;;1.23;;
5559;SDS011;2803;47.916;8.074;2023-11-21T10:50:32;1.47;;;1.17;;
5559;SDS011;2803;47.916;8.074;2023-11-21T10:53:00;2.00;;;1.80;;
5559;SDS011;2803;47.916;8.074;2023-11-21T10:55:28;3.50;;;1.23;;
5559;SDS011;2803;47.916;8.074;2023-11-21T10:57:58;2.90;;;1.10;;
5559;SDS011;2803;47.916;8.074;2023-11-21T11:00:27;1.40;;;1.30;;
5559;SDS011;2803;47.916;8.074;2023-11-21T11:02:54;4.73;;;1.63;;
5559;SDS011;2803;47.916;8.074;2023-11-21T11:05:21;1.73;;;1.20;;
5559;SDS011;2803;47.916;8.074;2023-11-21T11:07:52;3.33;;;1.60;;
5559;SDS011;2803;47.916;8.074;2023-11-21T11:10:24;1.87;;;1.20;;
5559;SDS011;2803;47.916;8.074;2023-11-21T11:12:52;3.13;;;1.13;;
5559;SDS011;2803;47.916;8.074;2023-11-21T11:15:21;1.53;;;1.03;;
5559;SDS011;2803;47.916;8.074;2023-11-21T11:17:49;5.20;;;2.63;;
5559;SDS011;2803;47.916;8.074;2023-11-21T11:20:16;2.80;;;1.40;;
5559;SDS011;2803;47.916;8.074;2023-11-21T11:22:48;6.20;;;2.63;;
5559;SDS011;2803;47.916;8.074;2023-11-21T11:25:35;1.40;;;0.90;;
5559;SDS011;2803;47.916;8.074;2023-11-21T11:28:14;1.10;;;1.00;;
5559;SDS011;2803;47.916;8.074;2023-11-21T11:30:47;1.60;;;1.20;;
5559;SDS011;2803;47.916;8.074;2023-11-21T11:33:26;1.47;;;0.80;;
5559;SDS011;2803;47.916;8.074;2023-11-21T11:36:00;3.97;;;2.00;;
5559;SDS011;2803;47.916;8.074;2023-11-21T11:38:33;1.27;;;0.80;;
5559;SDS011;2803;47.916;8.074;2023-11-21T11:41:01;1.30;;;0.80;;
5559;SDS011;2803;47.916;8.074;2023-11-21T11:43:29;2.80;;;0.80;;
5559;SDS011;2803;47.916;8.074;2023-11-21T11:45:59;1.30;;;0.70;;
5559;SDS011;2803;47.916;8.074;2023-11-21T11:48:29;1.20;;;0.70;;
5559;SDS011;2803;47.916;8.074;2023-11-21T11:51:04;0.80;;;0.60;;
5559;SDS011;2803;47.916;8.074;2023-11-21T11:53:36;2.30;;;1.03;;
5559;SDS011;2803;47.916;8.074;2023-11-21T11:58:48;2.20;;;0.70;;
5559;SDS011;2803;47.916;8.074;2023-11-21T12:01:17;1.43;;;0.60;;
5559;SDS011;2803;47.916;8.074;2023-11-21T12:03:44;1.50;;;0.70;;
5559;SDS011;2803;47.916;8.074;2023-11-21T12:06:35;0.90;;;0.50;;
5559;SDS011;2803;47.916;8.074;2023-11-21T12:09:02;1.20;;;0.70;;
5559;SDS011;2803;47.916;8.074;2023-11-21T12:11:30;1.83;;;0.90;;
5559;SDS011;2803;47.916;8.074;2023-11-21T12:13:57;2.90;;;0.80;;
5559;SDS011;2803;47.916;8.074;2023-11-21T12:16:25;0.80;;;0.50;;
5559;SDS011;2803;47.916;8.074;2023-11-21T12:18:52;1.60;;;0.63;;
5559;SDS011;2803;47.916;8.074;2023-11-21T12:21:19;1.90;;;0.50;;
5559;SDS011;2803;47.916;8.074;2023-11-21T12:23:47;4.00;;;0.60;;
5559;SDS011;2803;47.916;8.074;2023-11-21T12:26:14;2.23;;;0.80;;
5559;SDS011;2803;47.916;8.074;2023-11-21T12:28:40;2.97;;;1.43;;
5559;SDS011;2803;47.916;8.074;2023-11-21T12:31:08;0.90;;;0.50;;
5559;SDS011;2803;47.916;8.074;2023-11-21T12:33:35;1.53;;;0.57;;
5559;SDS011;2803;47.916;8.074;2023-11-21T12:36:03;0.90;;;0.50;;
5559;SDS011;2803;47.916;8.074;2023-11-21T12:38:33;2.53;;;0.50;;
5559;SDS011;2803;47.916;8.074;2023-11-21T12:41:01;1.00;;;0.50;;
5559;SDS011;2803;47.916;8.074;2023-11-21T12:43:29;1.00;;;0.50;;
5559;SDS011;2803;47.916;8.074;2023-11-21T12:46:04;0.80;;;0.50;;
5559;SDS011;2803;47.916;8.074;2023-11-21T12:48:31;0.77;;;0.50;;
5559;SDS011;2803;47.916;8.074;2023-11-21T12:50:58;0.80;;;0.50;;
5559;SDS011;2803;47.916;8.074;2023-11-21T12:53:25;1.00;;;0.50;;
5559;SDS011;2803;47.916;8.074;2023-11-21T12:55:58;4.30;;;0.57;;
5559;SDS011;2803;47.916;8.074;2023-11-21T12:58:27;2.13;;;0.50;;
5559;SDS011;2803;47.916;8.074;2023-11-21T13:00:54;0.90;;;0.50;;
5559;SDS011;2803;47.916;8.074;2023-11-21T13:03:24;0.90;;;0.50;;
5559;SDS011;2803;47.916;8.074;2023-11-21T13:05:52;1.23;;;0.50;;
5559;SDS011;2803;47.916;8.074;2023-11-21T13:08:22;1.00;;;0.60;;
5559;SDS011;2803;47.916;8.074;2023-11-21T13:10:51;1.00;;;0.50;;
5559;SDS011;2803;47.916;8.074;2023-11-21T13:13:20;0.90;;;0.63;;
5559;SDS011;2803;47.916;8.074;2023-11-21T13:15:49;0.93;;;0.50;;
5559;SDS011;2803;47.916;8.074;2023-11-21T13:18:16;0.90;;;0.70;;
5559;SDS011;2803;47.916;8.074;2023-11-21T13:20:43;0.87;;;0.60;;
5559;SDS011;2803;47.916;8.074;2023-11-21T13:23:11;1.07;;;0.50;;
5559;SDS011;2803;47.916;8.074;2023-11-21T13:25:41;1.57;;;0.60;;
5559;SDS011;2803;47.916;8.074;2023-11-21T13:28:10;1.00;;;0.60;;
5559;SDS011;2803;47.916;8.074;2023-11-21T13:30:37;1.10;;;0.50;;
5559;SDS011;2803;47.916;8.074;2023-11-21T13:33:07;0.90;;;0.53;;
5559;SDS011;2803;47.916;8.074;2023-11-21T13:35:35;1.00;;;0.53;;
5559;SDS011;2803;47.916;8.074;2023-11-21T13:38:07;0.80;;;0.50;;
5559;SDS011;2803;47.916;8.074;2023-11-21T13:40:35;0.90;;;0.50;;
5559;SDS011;2803;47.916;8.074;2023-11-21T13:43:08;0.90;;;0.60;;
5559;SDS011;2803;47.916;8.074;2023-11-21T13:45:35;2.23;;;0.80;;
5559;SDS011;2803;47.916;8.074;2023-11-21T13:48:01;3.23;;;0.87;;
5559;SDS011;2803;47.916;8.074;2023-11-21T13:50:33;1.63;;;0.70;;
5559;SDS011;2803;47.916;8.074;2023-11-21T13:53:00;0.90;;;0.60;;
5559;SDS011;2803;47.916;8.074;2023-11-21T13:55:41;1.00;;;0.60;;
5559;SDS011;2803;47.916;8.074;2023-11-21T13:58:07;0.90;;;0.50;;
5559;SDS011;2803;47.916;8.074;2023-11-21T14:00:37;1.73;;;0.60;;
5559;SDS011;2803;47.916;8.074;2023-11-21T14:03:10;2.87;;;0.70;;
5559;SDS011;2803;47.916;8.074;2023-11-21T14:05:45;1.13;;;0.60;;
5559;SDS011;2803;47.916;8.074;2023-11-21T14:08:15;4.10;;;1.30;;
5559;SDS011;2803;47.916;8.074;2023-11-21T14:10:45;4.50;;;1.00;;
5559;SDS011;2803;47.916;8.074;2023-11-21T14:13:15;1.80;;;1.10;;
5559;SDS011;2803;47.916;8.074;2023-11-21T14:15:43;3.33;;;1.00;;
5559;SDS011;2803;47.916;8.074;2023-11-21T14:18:11;2.00;;;0.70;;
5559;SDS011;2803;47.916;8.074;2023-11-21T14:20:41;1.47;;;0.70;;
5559;SDS011;2803;47.916;8.074;2023-11-21T14:23:10;4.67;;;1.00;;
5559;SDS011;2803;47.916;8.074;2023-11-21T14:25:37;2.00;;;0.70;;
5559;SDS011;2803;47.916;8.074;2023-11-21T14:28:06;2.07;;;1.10;;
5559;SDS011;2803;47.916;8.074;2023-11-21T14:30:32;1.53;;;0.93;;
5559;SDS011;2803;47.916;8.074;2023-11-21T14:33:01;2.03;;;0.90;;
5559;SDS011;2803;47.916;8.074;2023-11-21T14:35:28;2.13;;;0.97;;
5559;SDS011;2803;47.916;8.074;2023-11-21T14:37:57;2.27;;;0.90;;
5559;SDS011;2803;47.916;8.074;2023-11-21T14:40:26;1.10;;;0.80;;
5559;SDS011;2803;47.916;8.074;2023-11-21T14:42:57;1.87;;;0.90;;
5559;SDS011;2803;47.916;8.074;2023-11-21T14:45:24;1.60;;;0.90;;
5559;SDS011;2803;47.916;8.074;2023-11-21T14:47:52;5.60;;;0.90;;
5559;SDS011;2803;47.916;8.074;2023-11-21T14:50:27;2.20;;;1.20;;
5559;SDS011;2803;47.916;8.074;2023-11-21T14:53:08;1.60;;;1.13;;
5559;SDS011;2803;47.916;8.074;2023-11-21T14:55:39;2.53;;;1.27;;
5559;SDS011;2803;47.916;8.074;2023-11-21T14:58:19;1.53;;;1.10;;
5559;SDS011;2803;47.916;8.074;2023-11-21T15:00:52;6.30;;;3.67;;
5559;SDS011;2803;47.916;8.074;2023-11-21T15:03:23;3.10;;;2.20;;
5559;SDS011;2803;47.916;8.074;2023-11-21T15:06:08;1.10;;;1.00;;
5559;SDS011;2803;47.916;8.074;2023-11-21T15:08:49;6.43;;;1.30;;
5559;SDS011;2803;47.916;8.074;2023-11-21T15:11:23;1.27;;;0.80;;
5559;SDS011;2803;47.916;8.074;2023-11-21T15:13:55;1.73;;;0.90;;
5559;SDS011;2803;47.916;8.074;2023-11-21T15:16:22;5.07;;;1.40;;
5559;SDS011;2803;47.916;8.074;2023-11-21T15:18:50;3.47;;;1.63;;
5559;SDS011;2803;47.916;8.074;2023-11-21T15:21:18;2.93;;;1.20;;
5559;SDS011;2803;47.916;8.074;2023-11-21T15:23:46;2.20;;;1.10;;